sensor_id;sensor_type;location;lat;lon;timestamp;P1;durP1;ratioP1;P2;durP2;ratioP2
48951;SDS011;34758;42.148;24.744;2023-06-24T00:02:23;5.97;;;5.05;;
48951;SDS011;34758;42.148;24.744;2023-06-24T00:04:50;6.25;;;5.38;;
48951;SDS011;34758;42.148;24.744;2023-06-24T00:07:19;7.55;;;6.05;;
48951;SDS011;34758;42.148;24.744;2023-06-24T00:09:47;7.15;;;5.95;;
48951;SDS011;34758;42.148;24.744;2023-06-24T00:12:14;7.18;;;6.00;;
48951;SDS011;34758;42.148;24.744;2023-06-24T00:14:44;5.88;;;5.28;;
48951;SDS011;34758;42.148;24.744;2023-06-24T00:17:11;7.25;;;5.05;;
48951;SDS011;34758;42.148;24.744;2023-06-24T00:19:42;6.57;;;5.63;;
48951;SDS011;34758;42.148;24.744;2023-06-24T00:22:10;8.85;;;4.82;;
48951;SDS011;34758;42.148;24.744;2023-06-24T00:24:39;5.32;;;4.45;;
48951;SDS011;34758;42.148;24.744;2023-06-24T00:27:07;12.60;;;5.15;;
48951;SDS011;34758;42.148;24.744;2023-06-24T00:29:34;6.10;;;4.75;;
48951;SDS011;34758;42.148;24.744;2023-06-24T00:32:02;5.45;;;4.85;;
48951;SDS011;34758;42.148;24.744;2023-06-24T00:34:29;6.03;;;4.72;;
48951;SDS011;34758;42.148;24.744;2023-06-24T00:36:56;7.50;;;5.30;;
48951;SDS011;34758;42.148;24.744;2023-06-24T00:39:23;5.53;;;5.07;;
48951;SDS011;34758;42.148;24.744;2023-06-24T00:41:51;5.60;;;4.78;;
48951;SDS011;34758;42.148;24.744;2023-06-24T00:44:18;7.55;;;5.07;;
48951;SDS011;34758;42.148;24.744;2023-06-24T00:46:48;5.15;;;4.75;;
48951;SDS011;34758;42.148;24.744;2023-06-24T00:49:15;5.97;;;5.38;;
48951;SDS011;34758;42.148;24.744;2023-06-24T00:51:42;5.53;;;5.00;;
48951;SDS011;34758;42.148;24.744;2023-06-24T00:54:15;5.80;;;4.95;;
48951;SDS011;34758;42.148;24.744;2023-06-24T00:56:42;6.35;;;5.00;;
48951;SDS011;34758;42.148;24.744;2023-06-24T00:59:12;7.00;;;5.40;;
48951;SDS011;34758;42.148;24.744;2023-06-24T01:01:40;7.20;;;4.90;;
48951;SDS011;34758;42.148;24.744;2023-06-24T01:04:07;7.13;;;4.82;;
48951;SDS011;34758;42.148;24.744;2023-06-24T01:06:34;8.93;;;4.55;;
48951;SDS011;34758;42.148;24.744;2023-06-24T01:09:02;5.28;;;4.60;;
48951;SDS011;34758;42.148;24.744;2023-06-24T01:11:30;5.57;;;5.03;;
48951;SDS011;34758;42.148;24.744;2023-06-24T01:13:57;5.25;;;4.72;;
48951;SDS011;34758;42.148;24.744;2023-06-24T01:16:26;8.07;;;5.30;;
48951;SDS011;34758;42.148;24.744;2023-06-24T01:18:57;7.03;;;4.63;;
48951;SDS011;34758;42.148;24.744;2023-06-24T01:21:32;7.55;;;5.25;;
48951;SDS011;34758;42.148;24.744;2023-06-24T01:24:13;5.20;;;4.63;;
48951;SDS011;34758;42.148;24.744;2023-06-24T01:26:57;7.38;;;4.68;;
48951;SDS011;34758;42.148;24.744;2023-06-24T01:32:12;6.72;;;4.38;;
48951;SDS011;34758;42.148;24.744;2023-06-24T01:37:11;7.22;;;4.40;;
48951;SDS011;34758;42.148;24.744;2023-06-24T01:39:44;6.70;;;4.65;;
48951;SDS011;34758;42.148;24.744;2023-06-24T01:42:14;6.65;;;5.00;;
48951;SDS011;34758;42.148;24.744;2023-06-24T01:44:43;5.28;;;4.30;;
48951;SDS011;34758;42.148;24.744;2023-06-24T01:47:13;5.85;;;4.57;;
48951;SDS011;34758;42.148;24.744;2023-06-24T01:49:41;7.07;;;4.60;;
48951;SDS011;34758;42.148;24.744;2023-06-24T01:52:09;6.97;;;4.53;;
48951;SDS011;34758;42.148;24.744;2023-06-24T01:54:36;6.78;;;4.85;;
48951;SDS011;34758;42.148;24.744;2023-06-24T01:57:05;8.00;;;4.30;;
48951;SDS011;34758;42.148;24.744;2023-06-24T01:59:34;4.80;;;4.30;;
48951;SDS011;34758;42.148;24.744;2023-06-24T02:02:03;6.70;;;4.80;;
48951;SDS011;34758;42.148;24.744;2023-06-24T02:04:32;6.57;;;4.38;;
48951;SDS011;34758;42.148;24.744;2023-06-24T02:07:01;7.78;;;5.20;;
48951;SDS011;34758;42.148;24.744;2023-06-24T02:09:31;7.03;;;4.68;;
48951;SDS011;34758;42.148;24.744;2023-06-24T02:11:59;5.18;;;4.40;;
48951;SDS011;34758;42.148;24.744;2023-06-24T02:14:27;5.25;;;4.30;;
48951;SDS011;34758;42.148;24.744;2023-06-24T02:16:55;6.88;;;4.57;;
48951;SDS011;34758;42.148;24.744;2023-06-24T02:19:24;8.93;;;4.93;;
48951;SDS011;34758;42.148;24.744;2023-06-24T02:21:55;7.90;;;4.43;;
48951;SDS011;34758;42.148;24.744;2023-06-24T02:24:23;4.95;;;4.30;;
48951;SDS011;34758;42.148;24.744;2023-06-24T02:26:51;5.30;;;4.75;;
48951;SDS011;34758;42.148;24.744;2023-06-24T02:29:19;7.80;;;4.63;;
48951;SDS011;34758;42.148;24.744;2023-06-24T02:31:46;10.13;;;5.03;;
48951;SDS011;34758;42.148;24.744;2023-06-24T02:34:13;7.60;;;4.90;;
48951;SDS011;34758;42.148;24.744;2023-06-24T02:36:40;7.68;;;5.25;;
48951;SDS011;34758;42.148;24.744;2023-06-24T02:39:11;5.88;;;4.70;;
48951;SDS011;34758;42.148;24.744;2023-06-24T02:41:38;5.95;;;4.90;;
48951;SDS011;34758;42.148;24.744;2023-06-24T02:44:06;6.70;;;5.07;;
48951;SDS011;34758;42.148;24.744;2023-06-24T02:46:33;7.15;;;4.95;;
48951;SDS011;34758;42.148;24.744;2023-06-24T02:49:01;9.80;;;5.43;;
48951;SDS011;34758;42.148;24.744;2023-06-24T02:51:29;7.57;;;5.13;;
48951;SDS011;34758;42.148;24.744;2023-06-24T02:53:56;10.93;;;5.10;;
48951;SDS011;34758;42.148;24.744;2023-06-24T02:56:26;6.25;;;5.07;;
48951;SDS011;34758;42.148;24.744;2023-06-24T02:58:54;5.13;;;4.63;;
48951;SDS011;34758;42.148;24.744;2023-06-24T03:01:22;7.20;;;5.00;;
48951;SDS011;34758;42.148;24.744;2023-06-24T03:03:53;6.60;;;5.00;;
48951;SDS011;34758;42.148;24.744;2023-06-24T03:06:20;6.53;;;5.00;;
48951;SDS011;34758;42.148;24.744;2023-06-24T03:08:47;9.38;;;4.47;;
48951;SDS011;34758;42.148;24.744;2023-06-24T03:11:15;6.22;;;4.53;;
48951;SDS011;34758;42.148;24.744;2023-06-24T03:13:45;5.28;;;4.78;;
48951;SDS011;34758;42.148;24.744;2023-06-24T03:16:13;5.15;;;4.65;;
48951;SDS011;34758;42.148;24.744;2023-06-24T03:18:40;5.75;;;4.50;;
48951;SDS011;34758;42.148;24.744;2023-06-24T03:21:08;8.85;;;4.68;;
48951;SDS011;34758;42.148;24.744;2023-06-24T03:23:35;5.57;;;4.38;;
48951;SDS011;34758;42.148;24.744;2023-06-24T03:26:02;8.25;;;4.90;;
48951;SDS011;34758;42.148;24.744;2023-06-24T03:28:30;8.75;;;5.05;;
48951;SDS011;34758;42.148;24.744;2023-06-24T03:30:59;5.82;;;4.45;;
48951;SDS011;34758;42.148;24.744;2023-06-24T03:33:26;8.73;;;4.47;;
48951;SDS011;34758;42.148;24.744;2023-06-24T03:35:54;8.70;;;5.30;;
48951;SDS011;34758;42.148;24.744;2023-06-24T03:38:21;6.22;;;4.43;;
48951;SDS011;34758;42.148;24.744;2023-06-24T03:40:48;7.72;;;4.75;;
48951;SDS011;34758;42.148;24.744;2023-06-24T03:43:15;6.10;;;4.47;;
48951;SDS011;34758;42.148;24.744;2023-06-24T03:45:42;7.57;;;5.00;;
48951;SDS011;34758;42.148;24.744;2023-06-24T03:48:14;7.93;;;4.70;;
48951;SDS011;34758;42.148;24.744;2023-06-24T03:50:41;9.63;;;4.97;;
48951;SDS011;34758;42.148;24.744;2023-06-24T03:53:08;9.10;;;4.97;;
48951;SDS011;34758;42.148;24.744;2023-06-24T03:55:35;6.32;;;4.60;;
48951;SDS011;34758;42.148;24.744;2023-06-24T03:58:02;6.15;;;4.20;;
48951;SDS011;34758;42.148;24.744;2023-06-24T04:00:29;6.15;;;5.03;;
48951;SDS011;34758;42.148;24.744;2023-06-24T04:02:57;7.18;;;5.28;;
48951;SDS011;34758;42.148;24.744;2023-06-24T04:05:27;10.50;;;5.20;;
48951;SDS011;34758;42.148;24.744;2023-06-24T04:07:54;8.15;;;4.38;;
48951;SDS011;34758;42.148;24.744;2023-06-24T04:10:22;9.32;;;5.00;;
48951;SDS011;34758;42.148;24.744;2023-06-24T04:12:49;8.23;;;5.57;;
48951;SDS011;34758;42.148;24.744;2023-06-24T04:15:16;8.48;;;4.65;;
48951;SDS011;34758;42.148;24.744;2023-06-24T04:17:43;5.70;;;4.85;;
48951;SDS011;34758;42.148;24.744;2023-06-24T04:20:10;6.30;;;4.63;;
48951;SDS011;34758;42.148;24.744;2023-06-24T04:22:41;5.50;;;4.30;;
48951;SDS011;34758;42.148;24.744;2023-06-24T04:25:08;7.75;;;5.05;;
48951;SDS011;34758;42.148;24.744;2023-06-24T04:27:37;7.18;;;5.00;;
48951;SDS011;34758;42.148;24.744;2023-06-24T04:30:04;5.30;;;4.80;;
48951;SDS011;34758;42.148;24.744;2023-06-24T04:32:32;5.82;;;4.57;;
48951;SDS011;34758;42.148;24.744;2023-06-24T04:35:00;6.10;;;4.40;;
48951;SDS011;34758;42.148;24.744;2023-06-24T04:37:28;6.25;;;4.97;;
48951;SDS011;34758;42.148;24.744;2023-06-24T04:39:57;6.32;;;4.78;;
48951;SDS011;34758;42.148;24.744;2023-06-24T04:42:25;5.55;;;4.60;;
48951;SDS011;34758;42.148;24.744;2023-06-24T04:44:52;7.03;;;4.90;;
48951;SDS011;34758;42.148;24.744;2023-06-24T04:47:19;6.15;;;4.45;;
48951;SDS011;34758;42.148;24.744;2023-06-24T04:49:46;6.40;;;4.90;;
48951;SDS011;34758;42.148;24.744;2023-06-24T04:52:13;5.97;;;5.15;;
48951;SDS011;34758;42.148;24.744;2023-06-24T04:54:41;6.20;;;4.57;;
48951;SDS011;34758;42.148;24.744;2023-06-24T04:57:09;4.95;;;4.30;;
48951;SDS011;34758;42.148;24.744;2023-06-24T04:59:41;6.10;;;4.68;;
48951;SDS011;34758;42.148;24.744;2023-06-24T05:02:07;6.28;;;4.85;;
48951;SDS011;34758;42.148;24.744;2023-06-24T05:04:34;6.15;;;5.35;;
48951;SDS011;34758;42.148;24.744;2023-06-24T05:07:03;7.03;;;5.03;;
48951;SDS011;34758;42.148;24.744;2023-06-24T05:09:30;7.72;;;5.25;;
48951;SDS011;34758;42.148;24.744;2023-06-24T05:11:57;6.10;;;4.97;;
48951;SDS011;34758;42.148;24.744;2023-06-24T05:14:25;6.25;;;4.50;;
48951;SDS011;34758;42.148;24.744;2023-06-24T05:16:52;7.15;;;4.65;;
48951;SDS011;34758;42.148;24.744;2023-06-24T05:19:19;6.07;;;5.03;;
48951;SDS011;34758;42.148;24.744;2023-06-24T05:21:46;7.13;;;4.90;;
48951;SDS011;34758;42.148;24.744;2023-06-24T05:24:13;7.88;;;4.55;;
48951;SDS011;34758;42.148;24.744;2023-06-24T05:26:40;7.65;;;4.88;;
48951;SDS011;34758;42.148;24.744;2023-06-24T05:29:07;7.47;;;5.25;;
48951;SDS011;34758;42.148;24.744;2023-06-24T05:31:38;5.40;;;4.70;;
48951;SDS011;34758;42.148;24.744;2023-06-24T05:34:06;6.05;;;5.05;;
48951;SDS011;34758;42.148;24.744;2023-06-24T05:36:35;11.23;;;4.82;;
48951;SDS011;34758;42.148;24.744;2023-06-24T05:39:03;5.65;;;4.78;;
48951;SDS011;34758;42.148;24.744;2023-06-24T05:41:34;7.00;;;4.57;;
48951;SDS011;34758;42.148;24.744;2023-06-24T05:44:01;7.82;;;4.90;;
48951;SDS011;34758;42.148;24.744;2023-06-24T05:46:29;5.70;;;5.10;;
48951;SDS011;34758;42.148;24.744;2023-06-24T05:48:57;25.55;;;8.15;;
48951;SDS011;34758;42.148;24.744;2023-06-24T05:51:24;7.35;;;5.13;;
48951;SDS011;34758;42.148;24.744;2023-06-24T05:53:51;9.32;;;5.30;;
48951;SDS011;34758;42.148;24.744;2023-06-24T05:56:21;13.25;;;6.10;;
48951;SDS011;34758;42.148;24.744;2023-06-24T05:58:50;10.18;;;5.53;;
48951;SDS011;34758;42.148;24.744;2023-06-24T06:01:18;7.68;;;5.60;;
48951;SDS011;34758;42.148;24.744;2023-06-24T06:03:45;12.23;;;6.05;;
48951;SDS011;34758;42.148;24.744;2023-06-24T06:06:13;6.80;;;5.55;;
48951;SDS011;34758;42.148;24.744;2023-06-24T06:08:40;6.90;;;5.35;;
48951;SDS011;34758;42.148;24.744;2023-06-24T06:11:07;6.35;;;5.75;;
48951;SDS011;34758;42.148;24.744;2023-06-24T06:13:34;7.88;;;5.68;;
48951;SDS011;34758;42.148;24.744;2023-06-24T06:16:01;6.45;;;5.68;;
48951;SDS011;34758;42.148;24.744;2023-06-24T06:18:28;7.22;;;6.60;;
48951;SDS011;34758;42.148;24.744;2023-06-24T06:20:55;8.35;;;6.43;;
48951;SDS011;34758;42.148;24.744;2023-06-24T06:23:23;10.55;;;6.90;;
48951;SDS011;34758;42.148;24.744;2023-06-24T06:25:52;7.82;;;5.93;;
48951;SDS011;34758;42.148;24.744;2023-06-24T06:28:19;8.30;;;5.78;;
48951;SDS011;34758;42.148;24.744;2023-06-24T06:30:46;11.82;;;6.43;;
48951;SDS011;34758;42.148;24.744;2023-06-24T06:33:15;8.30;;;6.38;;
48951;SDS011;34758;42.148;24.744;2023-06-24T06:35:43;6.38;;;5.78;;
48951;SDS011;34758;42.148;24.744;2023-06-24T06:38:11;6.82;;;6.13;;
48951;SDS011;34758;42.148;24.744;2023-06-24T06:40:39;8.18;;;6.18;;
48951;SDS011;34758;42.148;24.744;2023-06-24T06:43:07;9.48;;;6.63;;
48951;SDS011;34758;42.148;24.744;2023-06-24T06:45:36;10.43;;;6.18;;
48951;SDS011;34758;42.148;24.744;2023-06-24T06:48:05;7.03;;;6.32;;
48951;SDS011;34758;42.148;24.744;2023-06-24T06:50:33;7.43;;;6.45;;
48951;SDS011;34758;42.148;24.744;2023-06-24T06:53:02;8.55;;;7.18;;
48951;SDS011;34758;42.148;24.744;2023-06-24T06:55:29;9.75;;;6.32;;
48951;SDS011;34758;42.148;24.744;2023-06-24T06:57:57;11.73;;;6.63;;
48951;SDS011;34758;42.148;24.744;2023-06-24T07:00:25;7.95;;;5.72;;
48951;SDS011;34758;42.148;24.744;2023-06-24T07:02:53;8.35;;;6.65;;
48951;SDS011;34758;42.148;24.744;2023-06-24T07:05:21;8.00;;;6.20;;
48951;SDS011;34758;42.148;24.744;2023-06-24T07:07:48;7.70;;;6.40;;
48951;SDS011;34758;42.148;24.744;2023-06-24T07:10:15;7.05;;;6.43;;
48951;SDS011;34758;42.148;24.744;2023-06-24T07:12:42;7.32;;;6.60;;
48951;SDS011;34758;42.148;24.744;2023-06-24T07:15:14;10.05;;;7.00;;
48951;SDS011;34758;42.148;24.744;2023-06-24T07:17:41;9.75;;;5.72;;
48951;SDS011;34758;42.148;24.744;2023-06-24T07:20:08;9.05;;;6.70;;
48951;SDS011;34758;42.148;24.744;2023-06-24T07:22:36;8.05;;;6.32;;
48951;SDS011;34758;42.148;24.744;2023-06-24T07:25:03;7.68;;;6.80;;
48951;SDS011;34758;42.148;24.744;2023-06-24T07:27:31;11.10;;;6.55;;
48951;SDS011;34758;42.148;24.744;2023-06-24T07:29:58;7.60;;;6.47;;
48951;SDS011;34758;42.148;24.744;2023-06-24T07:32:26;7.38;;;6.40;;
48951;SDS011;34758;42.148;24.744;2023-06-24T07:37:25;9.25;;;6.07;;
48951;SDS011;34758;42.148;24.744;2023-06-24T07:39:52;7.80;;;6.55;;
48951;SDS011;34758;42.148;24.744;2023-06-24T07:42:19;8.82;;;6.70;;
48951;SDS011;34758;42.148;24.744;2023-06-24T07:44:46;7.70;;;6.45;;
48951;SDS011;34758;42.148;24.744;2023-06-24T07:47:13;12.02;;;7.10;;
48951;SDS011;34758;42.148;24.744;2023-06-24T07:49:43;9.02;;;7.10;;
48951;SDS011;34758;42.148;24.744;2023-06-24T07:52:11;10.23;;;6.45;;
48951;SDS011;34758;42.148;24.744;2023-06-24T07:54:38;7.47;;;6.00;;
48951;SDS011;34758;42.148;24.744;2023-06-24T07:57:05;8.27;;;7.20;;
48951;SDS011;34758;42.148;24.744;2023-06-24T07:59:32;7.95;;;6.22;;
48951;SDS011;34758;42.148;24.744;2023-06-24T08:01:59;8.60;;;6.40;;
48951;SDS011;34758;42.148;24.744;2023-06-24T08:04:27;5.90;;;5.32;;
48951;SDS011;34758;42.148;24.744;2023-06-24T08:06:56;10.35;;;5.68;;
48951;SDS011;34758;42.148;24.744;2023-06-24T08:09:26;8.00;;;5.45;;
48951;SDS011;34758;42.148;24.744;2023-06-24T08:11:53;9.38;;;5.45;;
48951;SDS011;34758;42.148;24.744;2023-06-24T08:14:22;10.73;;;5.65;;
48951;SDS011;34758;42.148;24.744;2023-06-24T08:16:49;8.48;;;6.07;;
48951;SDS011;34758;42.148;24.744;2023-06-24T08:19:20;6.30;;;5.68;;
48951;SDS011;34758;42.148;24.744;2023-06-24T08:21:47;5.82;;;5.30;;
48951;SDS011;34758;42.148;24.744;2023-06-24T08:24:15;6.18;;;5.50;;
48951;SDS011;34758;42.148;24.744;2023-06-24T08:26:43;9.27;;;5.85;;
48951;SDS011;34758;42.148;24.744;2023-06-24T08:29:12;8.52;;;5.78;;
48951;SDS011;34758;42.148;24.744;2023-06-24T08:31:39;8.55;;;5.57;;
48951;SDS011;34758;42.148;24.744;2023-06-24T08:34:06;6.45;;;5.32;;
48951;SDS011;34758;42.148;24.744;2023-06-24T08:36:33;8.82;;;5.75;;
48951;SDS011;34758;42.148;24.744;2023-06-24T08:39:01;6.53;;;5.53;;
48951;SDS011;34758;42.148;24.744;2023-06-24T08:41:30;8.32;;;5.78;;
48951;SDS011;34758;42.148;24.744;2023-06-24T08:43:57;8.52;;;6.20;;
48951;SDS011;34758;42.148;24.744;2023-06-24T08:46:25;6.97;;;6.25;;
48951;SDS011;34758;42.148;24.744;2023-06-24T08:48:54;6.55;;;5.80;;
48951;SDS011;34758;42.148;24.744;2023-06-24T08:51:26;7.38;;;5.82;;
48951;SDS011;34758;42.148;24.744;2023-06-24T08:53:54;6.88;;;6.05;;
48951;SDS011;34758;42.148;24.744;2023-06-24T08:56:21;8.57;;;6.40;;
48951;SDS011;34758;42.148;24.744;2023-06-24T08:58:50;7.75;;;6.20;;
48951;SDS011;34758;42.148;24.744;2023-06-24T09:01:18;7.15;;;5.68;;
48951;SDS011;34758;42.148;24.744;2023-06-24T09:03:45;8.05;;;5.78;;
48951;SDS011;34758;42.148;24.744;2023-06-24T09:06:12;8.10;;;6.30;;
48951;SDS011;34758;42.148;24.744;2023-06-24T09:08:39;8.10;;;6.03;;
48951;SDS011;34758;42.148;24.744;2023-06-24T09:11:08;6.43;;;5.82;;
48951;SDS011;34758;42.148;24.744;2023-06-24T09:13:36;5.75;;;5.03;;
48951;SDS011;34758;42.148;24.744;2023-06-24T09:16:12;8.10;;;6.00;;
48951;SDS011;34758;42.148;24.744;2023-06-24T09:18:41;7.03;;;6.35;;
48951;SDS011;34758;42.148;24.744;2023-06-24T09:21:10;5.97;;;5.43;;
48951;SDS011;34758;42.148;24.744;2023-06-24T09:23:37;6.07;;;5.47;;
48951;SDS011;34758;42.148;24.744;2023-06-24T09:26:05;7.85;;;5.88;;
48951;SDS011;34758;42.148;24.744;2023-06-24T09:28:37;9.25;;;6.05;;
48951;SDS011;34758;42.148;24.744;2023-06-24T09:31:05;7.00;;;5.55;;
48951;SDS011;34758;42.148;24.744;2023-06-24T09:33:34;6.35;;;5.75;;
48951;SDS011;34758;42.148;24.744;2023-06-24T09:36:01;7.18;;;5.60;;
48951;SDS011;34758;42.148;24.744;2023-06-24T09:38:32;7.45;;;6.18;;
48951;SDS011;34758;42.148;24.744;2023-06-24T09:41:01;6.75;;;6.10;;
48951;SDS011;34758;42.148;24.744;2023-06-24T09:43:29;6.95;;;6.35;;
48951;SDS011;34758;42.148;24.744;2023-06-24T09:45:56;7.38;;;6.03;;
48951;SDS011;34758;42.148;24.744;2023-06-24T09:48:24;8.40;;;6.68;;
48951;SDS011;34758;42.148;24.744;2023-06-24T09:50:53;9.18;;;5.88;;
48951;SDS011;34758;42.148;24.744;2023-06-24T09:53:20;7.97;;;5.95;;
48951;SDS011;34758;42.148;24.744;2023-06-24T09:55:48;8.15;;;6.47;;
48951;SDS011;34758;42.148;24.744;2023-06-24T09:58:16;8.32;;;6.32;;
48951;SDS011;34758;42.148;24.744;2023-06-24T10:00:45;9.43;;;8.23;;
48951;SDS011;34758;42.148;24.744;2023-06-24T10:03:12;9.20;;;6.68;;
48951;SDS011;34758;42.148;24.744;2023-06-24T10:05:40;7.00;;;5.80;;
48951;SDS011;34758;42.148;24.744;2023-06-24T10:08:10;6.95;;;5.82;;
48951;SDS011;34758;42.148;24.744;2023-06-24T10:10:40;6.97;;;5.68;;
48951;SDS011;34758;42.148;24.744;2023-06-24T10:13:10;5.77;;;5.20;;
48951;SDS011;34758;42.148;24.744;2023-06-24T10:15:36;6.43;;;5.68;;
48951;SDS011;34758;42.148;24.744;2023-06-24T10:18:10;5.53;;;5.03;;
48951;SDS011;34758;42.148;24.744;2023-06-24T10:21:01;5.70;;;5.15;;
48951;SDS011;34758;42.148;24.744;2023-06-24T10:23:33;5.45;;;4.95;;
48951;SDS011;34758;42.148;24.744;2023-06-24T10:26:10;5.78;;;5.20;;
48951;SDS011;34758;42.148;24.744;2023-06-24T10:31:54;6.00;;;5.40;;
48951;SDS011;34758;42.148;24.744;2023-06-24T10:34:28;7.50;;;4.90;;
48951;SDS011;34758;42.148;24.744;2023-06-24T10:36:58;5.43;;;4.93;;
48951;SDS011;34758;42.148;24.744;2023-06-24T10:39:38;8.65;;;5.43;;
48951;SDS011;34758;42.148;24.744;2023-06-24T10:42:32;5.60;;;5.10;;
48951;SDS011;34758;42.148;24.744;2023-06-24T10:45:12;8.32;;;5.80;;
48951;SDS011;34758;42.148;24.744;2023-06-24T10:47:46;5.93;;;5.40;;
48951;SDS011;34758;42.148;24.744;2023-06-24T10:50:15;6.40;;;5.90;;
48951;SDS011;34758;42.148;24.744;2023-06-24T10:52:43;6.20;;;5.70;;
48951;SDS011;34758;42.148;24.744;2023-06-24T10:55:14;6.88;;;6.28;;
48951;SDS011;34758;42.148;24.744;2023-06-24T10:57:43;6.88;;;5.82;;
48951;SDS011;34758;42.148;24.744;2023-06-24T11:00:15;6.10;;;5.57;;
48951;SDS011;34758;42.148;24.744;2023-06-24T11:02:44;6.03;;;5.55;;
48951;SDS011;34758;42.148;24.744;2023-06-24T11:05:11;6.20;;;5.70;;
48951;SDS011;34758;42.148;24.744;2023-06-24T11:07:38;5.90;;;5.38;;
48951;SDS011;34758;42.148;24.744;2023-06-24T11:10:06;6.32;;;5.72;;
48951;SDS011;34758;42.148;24.744;2023-06-24T11:12:36;7.78;;;6.25;;
48951;SDS011;34758;42.148;24.744;2023-06-24T11:15:05;7.28;;;6.25;;
48951;SDS011;34758;42.148;24.744;2023-06-24T11:17:34;6.78;;;6.10;;
48951;SDS011;34758;42.148;24.744;2023-06-24T11:20:06;11.13;;;6.47;;
48951;SDS011;34758;42.148;24.744;2023-06-24T11:22:34;7.72;;;6.80;;
48951;SDS011;34758;42.148;24.744;2023-06-24T11:25:04;8.40;;;7.60;;
48951;SDS011;34758;42.148;24.744;2023-06-24T11:27:32;7.85;;;6.95;;
48951;SDS011;34758;42.148;24.744;2023-06-24T11:30:01;7.88;;;7.07;;
48951;SDS011;34758;42.148;24.744;2023-06-24T11:32:36;10.18;;;7.55;;
48951;SDS011;34758;42.148;24.744;2023-06-24T11:35:04;8.05;;;7.07;;
48951;SDS011;34758;42.148;24.744;2023-06-24T11:37:33;7.80;;;6.80;;
48951;SDS011;34758;42.148;24.744;2023-06-24T11:40:00;7.30;;;6.70;;
48951;SDS011;34758;42.148;24.744;2023-06-24T11:42:31;7.40;;;6.80;;
48951;SDS011;34758;42.148;24.744;2023-06-24T11:45:03;7.93;;;7.10;;
48951;SDS011;34758;42.148;24.744;2023-06-24T11:47:31;7.88;;;7.18;;
48951;SDS011;34758;42.148;24.744;2023-06-24T11:50:00;7.07;;;6.43;;
48951;SDS011;34758;42.148;24.744;2023-06-24T11:52:32;7.53;;;6.82;;
48951;SDS011;34758;42.148;24.744;2023-06-24T11:55:00;7.68;;;6.97;;
48951;SDS011;34758;42.148;24.744;2023-06-24T12:00:16;6.80;;;6.20;;
48951;SDS011;34758;42.148;24.744;2023-06-24T12:02:45;6.95;;;6.45;;
48951;SDS011;34758;42.148;24.744;2023-06-24T12:05:19;7.13;;;6.53;;
48951;SDS011;34758;42.148;24.744;2023-06-24T12:07:53;7.10;;;6.40;;
48951;SDS011;34758;42.148;24.744;2023-06-24T12:10:21;7.80;;;6.97;;
48951;SDS011;34758;42.148;24.744;2023-06-24T12:12:48;7.78;;;7.05;;
48951;SDS011;34758;42.148;24.744;2023-06-24T12:15:18;8.75;;;7.95;;
48951;SDS011;34758;42.148;24.744;2023-06-24T12:17:45;7.97;;;7.38;;
48951;SDS011;34758;42.148;24.744;2023-06-24T12:20:13;8.05;;;7.22;;
48951;SDS011;34758;42.148;24.744;2023-06-24T12:22:41;8.02;;;7.35;;
48951;SDS011;34758;42.148;24.744;2023-06-24T12:25:08;9.57;;;7.60;;
48951;SDS011;34758;42.148;24.744;2023-06-24T12:27:38;8.50;;;7.80;;
48951;SDS011;34758;42.148;24.744;2023-06-24T12:30:05;7.97;;;7.38;;
48951;SDS011;34758;42.148;24.744;2023-06-24T12:32:35;7.80;;;7.18;;
48951;SDS011;34758;42.148;24.744;2023-06-24T12:35:02;7.95;;;7.28;;
48951;SDS011;34758;42.148;24.744;2023-06-24T12:37:30;8.88;;;7.85;;
48951;SDS011;34758;42.148;24.744;2023-06-24T12:39:58;8.27;;;7.65;;
48951;SDS011;34758;42.148;24.744;2023-06-24T12:42:25;8.10;;;7.30;;
48951;SDS011;34758;42.148;24.744;2023-06-24T12:44:52;7.85;;;7.18;;
48951;SDS011;34758;42.148;24.744;2023-06-24T12:47:20;8.43;;;7.72;;
48951;SDS011;34758;42.148;24.744;2023-06-24T12:49:49;8.95;;;8.15;;
48951;SDS011;34758;42.148;24.744;2023-06-24T12:52:16;8.68;;;7.97;;
48951;SDS011;34758;42.148;24.744;2023-06-24T12:54:44;7.88;;;7.07;;
48951;SDS011;34758;42.148;24.744;2023-06-24T12:57:12;7.80;;;7.10;;
48951;SDS011;34758;42.148;24.744;2023-06-24T12:59:39;7.22;;;6.68;;
48951;SDS011;34758;42.148;24.744;2023-06-24T13:02:05;7.05;;;6.55;;
48951;SDS011;34758;42.148;24.744;2023-06-24T13:04:33;8.07;;;7.15;;
48951;SDS011;34758;42.148;24.744;2023-06-24T13:07:02;7.00;;;6.40;;
48951;SDS011;34758;42.148;24.744;2023-06-24T13:09:31;7.40;;;6.80;;
48951;SDS011;34758;42.148;24.744;2023-06-24T13:11:57;7.40;;;6.60;;
48951;SDS011;34758;42.148;24.744;2023-06-24T13:14:24;7.45;;;6.70;;
48951;SDS011;34758;42.148;24.744;2023-06-24T13:16:53;7.53;;;6.80;;
48951;SDS011;34758;42.148;24.744;2023-06-24T13:19:21;7.20;;;6.60;;
48951;SDS011;34758;42.148;24.744;2023-06-24T13:21:51;8.15;;;7.18;;
48951;SDS011;34758;42.148;24.744;2023-06-24T13:24:19;8.38;;;7.22;;
48951;SDS011;34758;42.148;24.744;2023-06-24T13:26:47;6.80;;;6.25;;
48951;SDS011;34758;42.148;24.744;2023-06-24T13:29:14;7.70;;;7.07;;
48951;SDS011;34758;42.148;24.744;2023-06-24T13:31:44;8.60;;;7.80;;
48951;SDS011;34758;42.148;24.744;2023-06-24T13:34:12;7.80;;;7.10;;
48951;SDS011;34758;42.148;24.744;2023-06-24T13:36:39;7.95;;;6.85;;
48951;SDS011;34758;42.148;24.744;2023-06-24T13:39:06;7.60;;;6.88;;
48951;SDS011;34758;42.148;24.744;2023-06-24T13:41:37;8.13;;;6.50;;
48951;SDS011;34758;42.148;24.744;2023-06-24T13:44:04;7.93;;;7.22;;
48951;SDS011;34758;42.148;24.744;2023-06-24T13:46:32;6.35;;;5.85;;
48951;SDS011;34758;42.148;24.744;2023-06-24T13:49:00;7.28;;;6.57;;
48951;SDS011;34758;42.148;24.744;2023-06-24T13:51:28;7.03;;;6.43;;
48951;SDS011;34758;42.148;24.744;2023-06-24T13:53:55;7.47;;;6.88;;
48951;SDS011;34758;42.148;24.744;2023-06-24T13:56:22;6.93;;;6.43;;
48951;SDS011;34758;42.148;24.744;2023-06-24T13:58:52;7.07;;;6.47;;
48951;SDS011;34758;42.148;24.744;2023-06-24T14:01:20;8.27;;;7.57;;
48951;SDS011;34758;42.148;24.744;2023-06-24T14:03:47;7.13;;;6.35;;
48951;SDS011;34758;42.148;24.744;2023-06-24T14:06:15;7.00;;;6.40;;
48951;SDS011;34758;42.148;24.744;2023-06-24T14:08:43;7.43;;;6.50;;
48951;SDS011;34758;42.148;24.744;2023-06-24T14:11:11;6.95;;;6.28;;
48951;SDS011;34758;42.148;24.744;2023-06-24T14:13:39;7.53;;;6.82;;
48951;SDS011;34758;42.148;24.744;2023-06-24T14:16:08;6.93;;;6.32;;
48951;SDS011;34758;42.148;24.744;2023-06-24T14:18:35;8.07;;;7.28;;
48951;SDS011;34758;42.148;24.744;2023-06-24T14:21:03;8.18;;;7.10;;
48951;SDS011;34758;42.148;24.744;2023-06-24T14:23:31;7.63;;;6.82;;
48951;SDS011;34758;42.148;24.744;2023-06-24T14:26:01;8.05;;;7.35;;
48951;SDS011;34758;42.148;24.744;2023-06-24T14:28:28;6.63;;;6.03;;
48951;SDS011;34758;42.148;24.744;2023-06-24T14:30:55;8.50;;;6.43;;
48951;SDS011;34758;42.148;24.744;2023-06-24T14:33:23;6.18;;;5.68;;
48951;SDS011;34758;42.148;24.744;2023-06-24T14:35:50;7.63;;;6.93;;
48951;SDS011;34758;42.148;24.744;2023-06-24T14:38:17;6.65;;;5.90;;
48951;SDS011;34758;42.148;24.744;2023-06-24T14:40:44;8.07;;;6.13;;
48951;SDS011;34758;42.148;24.744;2023-06-24T14:43:11;7.68;;;6.97;;
48951;SDS011;34758;42.148;24.744;2023-06-24T14:45:38;6.63;;;6.03;;
48951;SDS011;34758;42.148;24.744;2023-06-24T14:48:04;6.18;;;5.68;;
48951;SDS011;34758;42.148;24.744;2023-06-24T14:50:33;7.07;;;5.70;;
48951;SDS011;34758;42.148;24.744;2023-06-24T14:53:00;6.95;;;6.22;;
48951;SDS011;34758;42.148;24.744;2023-06-24T14:55:27;6.32;;;5.72;;